createdAt,value
2019-01-17T00:00:37.705Z,97953.00
2019-01-17T00:02:58.442Z,97965.00
2019-01-17T00:05:28.687Z,97973.00
2019-01-17T00:07:51.826Z,97977.00
2019-01-17T00:10:31.228Z,97966.00
2019-01-17T00:13:02.121Z,97968.00
2019-01-17T00:15:26.985Z,97971.00
2019-01-17T00:17:54.537Z,97966.00
2019-01-17T00:20:23.672Z,97969.00
2019-01-17T00:22:46.764Z,97969.00
2019-01-17T00:25:17.465Z,97968.00
2019-01-17T00:27:36.221Z,97971.00
2019-01-17T00:30:18.422Z,97973.00
2019-01-17T00:32:48.407Z,97976.00
2019-01-17T00:35:11.101Z,97967.00
2019-01-17T00:37:47.249Z,97968.00
2019-01-17T00:40:04.246Z,97970.00
2019-01-17T00:42:28.633Z,97966.00
2019-01-17T00:44:51.737Z,97964.00
2019-01-17T00:47:07.328Z,97962.00
2019-01-17T00:49:50.067Z,97958.00
2019-01-17T00:52:12.751Z,97959.00
2019-01-17T00:54:42.162Z,97957.00
2019-01-17T00:57:05.827Z,97964.00
2019-01-17T00:59:18.824Z,97963.00
2019-01-17T01:01:41.525Z,97950.00
2019-01-17T01:04:05.487Z,97955.00
2019-01-17T01:06:42.419Z,97951.00
2019-01-17T01:09:05.726Z,97960.00
2019-01-17T01:11:38.896Z,97964.00
2019-01-17T01:14:09.366Z,97951.00
2019-01-17T01:16:33.099Z,97949.00
2019-01-17T01:19:05.349Z,97946.00
2019-01-17T01:21:32.703Z,97943.00
2019-01-17T01:24:03.094Z,97955.00
2019-01-17T01:26:42.578Z,97957.00
2019-01-17T01:29:05.890Z,97953.00
2019-01-17T01:31:29.297Z,97961.00
2019-01-17T01:33:52.436Z,97950.00
2019-01-17T01:36:16.443Z,97963.00
2019-01-17T01:38:46.919Z,97966.00
2019-01-17T01:41:03.878Z,97956.00
2019-01-17T01:43:43.099Z,97965.00
2019-01-17T01:46:30.091Z,97973.00
2019-01-17T01:48:52.832Z,97970.00
2019-01-17T01:51:17.002Z,97970.00
2019-01-17T01:53:22.093Z,97982.00
2019-01-17T01:55:28.252Z,97974.00
2019-01-17T01:57:34.542Z,97978.00
2019-01-17T01:59:39.926Z,97986.00
2019-01-17T02:01:50.687Z,97972.00
2019-01-17T02:03:57.882Z,97978.00
2019-01-17T02:06:06.147Z,97987.00
2019-01-17T02:08:13.368Z,97976.00
2019-01-17T02:10:18.509Z,97974.00
2019-01-17T02:12:23.460Z,97974.00
2019-01-17T02:14:29.288Z,97977.00
2019-01-17T02:16:34.631Z,97980.00
2019-01-17T02:18:40.250Z,97976.00
2019-01-17T02:20:45.502Z,97972.00
2019-01-17T02:22:50.860Z,97965.00
2019-01-17T02:24:56.134Z,97973.00
2019-01-17T02:27:01.180Z,97977.00
2019-01-17T02:29:06.229Z,97972.00
2019-01-17T02:31:11.470Z,97978.00
2019-01-17T02:33:16.415Z,97982.00
2019-01-17T02:35:21.680Z,97982.00
2019-01-17T02:37:26.763Z,97977.00
2019-01-17T02:39:31.797Z,97986.00
2019-01-17T02:41:36.920Z,98001.00
2019-01-17T02:43:41.975Z,97997.00
2019-01-17T02:45:47.087Z,97998.00
2019-01-17T02:47:52.234Z,97988.00
2019-01-17T02:49:57.215Z,97991.00
2019-01-17T02:52:02.311Z,97990.00
2019-01-17T02:54:07.265Z,97987.00
2019-01-17T02:56:12.231Z,97986.00
2019-01-17T02:58:17.562Z,97990.00
2019-01-17T03:00:25.567Z,97997.00
2019-01-17T03:02:32.619Z,98001.00
2019-01-17T03:04:37.992Z,97996.00
2019-01-17T03:06:43.120Z,97984.00
2019-01-17T03:08:48.381Z,97980.00
2019-01-17T03:10:53.396Z,97982.00
2019-01-17T03:12:58.521Z,97985.00
2019-01-17T03:15:03.920Z,97975.00
2019-01-17T03:17:08.974Z,97992.00
2019-01-17T03:19:14.008Z,97984.00
2019-01-17T03:21:19.055Z,97986.00
2019-01-17T03:23:24.233Z,97992.00
2019-01-17T03:25:29.174Z,97991.00
2019-01-17T03:27:34.229Z,97986.00
2019-01-17T03:29:39.335Z,97993.00
2019-01-17T03:31:44.463Z,98001.00
2019-01-17T03:33:49.527Z,98001.00
2019-01-17T03:35:54.515Z,97990.00
2019-01-17T03:37:59.521Z,97975.00
2019-01-17T03:40:05.913Z,97974.00
2019-01-17T03:42:11.396Z,97973.00
2019-01-17T03:44:16.499Z,97951.00
2019-01-17T03:46:21.819Z,97952.00
2019-01-17T03:48:26.917Z,97952.00
2019-01-17T03:50:32.011Z,97955.00
2019-01-17T03:52:37.053Z,97964.00
2019-01-17T03:54:42.206Z,97958.00
2019-01-17T03:56:47.271Z,97954.00
2019-01-17T03:58:52.297Z,97949.00
2019-01-17T04:00:57.315Z,97954.00
2019-01-17T04:03:02.702Z,97949.00
2019-01-17T04:05:08.556Z,97961.00
2019-01-17T04:07:13.543Z,97952.00
2019-01-17T04:09:18.631Z,97965.00
2019-01-17T04:11:23.605Z,97960.00
2019-01-17T04:13:28.925Z,97963.00
2019-01-17T04:15:33.955Z,97964.00
2019-01-17T04:17:39.112Z,97959.00
2019-01-17T04:19:44.013Z,97972.00
2019-01-17T04:21:48.985Z,97956.00
2019-01-17T04:23:54.003Z,97974.00
2019-01-17T04:25:59.155Z,97971.00
2019-01-17T04:28:04.248Z,97964.00
2019-01-17T04:30:16.809Z,97962.00
2019-01-17T04:32:22.049Z,97961.00
2019-01-17T04:34:27.159Z,97957.00
2019-01-17T04:36:32.138Z,97958.00
2019-01-17T04:38:37.090Z,97954.00
2019-01-17T04:40:42.461Z,97958.00
2019-01-17T04:42:47.619Z,97956.00
2019-01-17T04:44:52.565Z,97960.00
2019-01-17T04:46:57.505Z,97952.00
2019-01-17T04:49:02.783Z,97944.00
2019-01-17T04:51:07.897Z,97959.00
2019-01-17T04:53:12.984Z,97968.00
2019-01-17T04:55:18.419Z,97969.00
2019-01-17T04:57:23.376Z,97964.00
2019-01-17T04:59:28.346Z,97971.00
2019-01-17T05:01:33.748Z,97971.00
2019-01-17T05:03:38.806Z,97963.00
2019-01-17T05:05:43.843Z,97962.00
2019-01-17T05:07:48.979Z,97955.00
2019-01-17T05:09:54.078Z,97955.00
2019-01-17T05:11:59.116Z,97950.00
2019-01-17T05:14:04.318Z,97948.00
2019-01-17T05:16:09.471Z,97957.00
2019-01-17T05:18:14.418Z,97944.00
2019-01-17T05:20:19.550Z,97945.00
2019-01-17T05:22:24.566Z,97958.00
2019-01-17T05:24:29.533Z,97958.00
2019-01-17T05:26:34.555Z,97951.00
2019-01-17T05:28:39.500Z,97969.00
2019-01-17T05:30:44.463Z,97958.00
2019-01-17T05:32:49.476Z,97960.00
2019-01-17T05:34:54.548Z,97955.00
2019-01-17T05:36:59.648Z,97955.00
2019-01-17T05:39:07.075Z,97950.00
2019-01-17T05:41:12.129Z,97953.00
2019-01-17T05:43:17.264Z,97951.00
2019-01-17T05:45:22.752Z,97953.00
2019-01-17T05:47:27.700Z,97950.00
2019-01-17T05:49:32.718Z,97951.00
2019-01-17T05:51:37.706Z,97946.00
2019-01-17T05:53:42.738Z,97952.00
2019-01-17T05:55:47.790Z,97950.00
2019-01-17T05:57:52.733Z,97954.00
2019-01-17T05:59:57.671Z,97949.00
2019-01-17T06:02:02.821Z,97953.00
2019-01-17T06:04:07.912Z,97952.00
2019-01-17T06:06:12.961Z,97946.00
2019-01-17T06:08:17.898Z,97947.00
2019-01-17T06:10:22.848Z,97953.00
2019-01-17T06:12:28.188Z,97945.00
2019-01-17T06:14:33.243Z,97948.00
2019-01-17T06:16:38.230Z,97951.00
2019-01-17T06:18:43.336Z,97948.00
2019-01-17T06:20:48.505Z,97947.00
2019-01-17T06:22:53.533Z,97939.00
2019-01-17T06:24:58.592Z,97950.00
2019-01-17T06:27:03.637Z,97949.00
2019-01-17T06:29:08.867Z,97952.00
2019-01-17T06:31:13.825Z,97939.00
2019-01-17T06:33:18.947Z,97937.00
2019-01-17T06:35:23.967Z,97941.00
2019-01-17T06:37:29.082Z,97934.00
2019-01-17T06:39:34.039Z,97945.00
2019-01-17T06:41:39.179Z,97933.00
2019-01-17T06:43:44.350Z,97937.00
2019-01-17T06:45:49.376Z,97936.00
2019-01-17T06:47:54.490Z,97938.00
2019-01-17T06:49:59.708Z,97935.00
2019-01-17T06:52:05.074Z,97927.00
2019-01-17T06:54:10.044Z,97923.00
2019-01-17T06:56:15.026Z,97932.00
2019-01-17T06:58:20.027Z,97929.00
2019-01-17T07:00:25.479Z,97924.00
2019-01-17T07:02:30.823Z,97923.00
2019-01-17T07:04:35.732Z,97926.00
2019-01-17T07:06:40.998Z,97939.00
2019-01-17T07:08:46.041Z,97940.00
2019-01-17T07:10:51.446Z,97932.00
2019-01-17T07:12:56.513Z,97933.00
2019-01-17T07:15:01.911Z,97934.00
2019-01-17T07:17:07.303Z,97935.00
2019-01-17T07:19:12.296Z,97935.00
2019-01-17T07:21:17.650Z,97937.00
2019-01-17T07:23:22.734Z,97933.00
2019-01-17T07:25:27.675Z,97935.00
2019-01-17T07:27:33.086Z,97936.00
2019-01-17T07:29:38.067Z,97934.00
2019-01-17T07:31:43.096Z,97945.00
2019-01-17T07:33:48.463Z,97935.00
2019-01-17T07:35:53.471Z,97951.00
2019-01-17T07:37:58.987Z,97946.00
2019-01-17T07:40:04.145Z,97945.00
2019-01-17T07:42:09.159Z,97953.00
2019-01-17T07:44:14.593Z,97948.00
2019-01-17T07:46:19.981Z,97946.00
2019-01-17T07:48:25.230Z,97943.00
2019-01-17T07:50:30.261Z,97950.00
2019-01-17T07:52:35.366Z,97948.00
2019-01-17T07:54:40.934Z,97965.00
2019-01-17T07:56:46.237Z,97959.00
2019-01-17T07:58:51.208Z,97956.00
2019-01-17T08:00:56.230Z,97967.00
2019-01-17T08:03:01.232Z,97961.00
2019-01-17T08:05:07.053Z,97952.00
2019-01-17T08:07:12.173Z,97956.00
2019-01-17T08:09:17.278Z,97955.00
2019-01-17T08:11:22.247Z,97962.00
2019-01-17T08:13:27.331Z,97956.00
2019-01-17T08:15:32.438Z,97962.00
2019-01-17T08:17:37.745Z,97960.00
2019-01-17T08:19:42.623Z,97969.00
2019-01-17T08:21:47.646Z,97974.00
2019-01-17T08:23:52.748Z,97961.00
2019-01-17T08:25:57.631Z,97967.00
2019-01-17T08:28:02.703Z,97973.00
2019-01-17T08:30:12.800Z,97962.00
2019-01-17T08:32:17.870Z,97980.00
2019-01-17T08:34:28.324Z,97964.00
2019-01-17T08:36:30.032Z,97976.00
2019-01-17T08:38:35.528Z,97965.00
2019-01-17T08:40:40.480Z,97969.00
2019-01-17T08:42:45.791Z,97972.00
2019-01-17T08:44:51.073Z,97976.00
2019-01-17T08:46:56.029Z,97969.00
2019-01-17T08:49:01.044Z,97975.00
2019-01-17T08:51:06.149Z,97967.00
2019-01-17T08:53:11.074Z,97976.00
2019-01-17T08:55:16.485Z,97974.00
2019-01-17T08:57:21.458Z,97971.00
2019-01-17T08:59:26.396Z,97968.00
2019-01-17T09:01:32.084Z,97966.00
2019-01-17T09:03:37.101Z,97967.00
2019-01-17T09:05:42.151Z,97963.00
2019-01-17T09:07:47.227Z,97967.00
2019-01-17T09:09:52.325Z,97970.00
2019-01-17T09:11:57.426Z,97963.00
2019-01-17T09:14:02.408Z,97960.00
2019-01-17T09:16:07.545Z,97970.00
2019-01-17T09:18:12.655Z,97960.00
2019-01-17T09:20:17.762Z,97961.00
2019-01-17T09:22:22.955Z,97963.00
2019-01-17T09:24:28.329Z,97956.00
2019-01-17T09:26:33.542Z,97957.00
2019-01-17T09:28:38.528Z,97955.00
2019-01-17T09:30:43.779Z,97954.00
2019-01-17T09:32:48.867Z,97951.00
2019-01-17T09:34:53.743Z,97953.00
2019-01-17T09:36:58.733Z,97949.00
2019-01-17T09:39:05.306Z,97940.00
2019-01-17T09:41:10.417Z,97932.00
2019-01-17T09:43:15.689Z,97931.00
2019-01-17T09:45:20.798Z,97934.00
2019-01-17T09:47:25.826Z,97936.00
2019-01-17T09:49:30.765Z,97932.00
2019-01-17T09:51:35.877Z,97925.00
2019-01-17T09:53:41.185Z,97928.00
2019-01-17T09:55:46.444Z,97926.00
2019-01-17T09:57:51.556Z,97920.00
2019-01-17T09:59:56.567Z,97919.00
2019-01-17T10:02:01.793Z,97913.00
2019-01-17T10:04:06.835Z,97899.00
2019-01-17T10:06:12.126Z,97911.00
2019-01-17T10:08:17.162Z,97906.00
2019-01-17T10:10:22.331Z,97906.00
2019-01-17T10:12:27.191Z,97906.00
2019-01-17T10:14:32.221Z,97895.00
2019-01-17T10:17:23.399Z,97892.00
2019-01-17T10:20:35.135Z,97884.00
2019-01-17T10:23:26.703Z,97884.00
2019-01-17T10:25:59.951Z,97877.00
2019-01-17T10:28:48.937Z,97871.00
2019-01-17T10:31:48.368Z,97859.00
2019-01-17T10:34:25.617Z,97865.00
2019-01-17T10:37:13.186Z,97859.00
2019-01-17T10:40:01.753Z,97857.00
2019-01-17T10:43:03.717Z,97844.00
2019-01-17T10:46:06.015Z,97842.00
2019-01-17T10:48:55.222Z,97838.00
2019-01-17T10:51:53.817Z,97837.00
2019-01-17T10:54:20.405Z,97835.00
2019-01-17T10:56:56.411Z,97817.00
2019-01-17T10:59:34.303Z,97812.00
2019-01-17T11:02:12.662Z,97823.00
2019-01-17T11:04:56.284Z,97815.00
2019-01-17T11:07:47.401Z,97811.00
2019-01-17T11:10:39.231Z,97808.00
2019-01-17T11:14:00.974Z,97794.00
2019-01-17T11:17:20.033Z,97792.00
2019-01-17T11:19:58.601Z,97784.00
2019-01-17T11:22:48.818Z,97786.00
2019-01-17T11:25:49.924Z,97785.00
2019-01-17T11:28:42.585Z,97786.00
2019-01-17T11:31:07.348Z,97801.00
2019-01-17T11:34:15.670Z,97803.00
2019-01-17T11:37:03.330Z,97809.00
2019-01-17T11:39:21.870Z,97814.00
2019-01-17T11:41:57.310Z,97822.00
2019-01-17T11:44:38.463Z,97829.00
2019-01-17T11:47:32.193Z,97812.00
2019-01-17T11:50:18.412Z,97819.00
2019-01-17T11:53:11.292Z,97823.00
2019-01-17T11:56:06.786Z,97817.00
2019-01-17T11:58:44.771Z,97820.00
2019-01-17T12:01:51.407Z,97811.00
2019-01-17T12:04:35.930Z,97817.00
2019-01-17T12:06:41.346Z,97803.00
2019-01-17T12:08:46.396Z,97814.00
2019-01-17T12:10:51.499Z,97803.00
2019-01-17T12:12:57.155Z,97819.00
2019-01-17T12:15:02.288Z,97820.00
2019-01-17T12:17:07.263Z,97826.00
2019-01-17T12:19:12.641Z,97838.00
2019-01-17T12:21:18.068Z,97834.00
2019-01-17T12:23:22.997Z,97838.00
2019-01-17T12:25:28.380Z,97838.00
2019-01-17T12:27:33.340Z,97835.00
2019-01-17T12:29:38.365Z,97833.00
2019-01-17T12:31:43.417Z,97829.00
2019-01-17T12:33:48.341Z,97839.00
2019-01-17T12:35:53.289Z,97842.00
2019-01-17T12:37:58.242Z,97846.00
2019-01-17T12:40:03.619Z,97841.00
2019-01-17T12:42:08.739Z,97844.00
2019-01-17T12:44:13.854Z,97838.00
2019-01-17T12:46:18.694Z,97844.00
2019-01-17T12:48:23.714Z,97839.00
2019-01-17T12:50:28.813Z,97841.00
2019-01-17T12:52:34.183Z,97850.00
2019-01-17T12:54:39.291Z,97850.00
2019-01-17T12:56:44.310Z,97861.00
2019-01-17T12:58:49.360Z,97859.00
2019-01-17T13:00:54.735Z,97864.00
2019-01-17T13:02:59.701Z,97873.00
2019-01-17T13:05:05.135Z,97876.00
2019-01-17T13:07:09.999Z,97873.00
2019-01-17T13:09:15.041Z,97878.00
2019-01-17T13:11:20.088Z,97875.00
2019-01-17T13:13:25.118Z,97890.00
2019-01-17T13:15:30.360Z,97897.00
2019-01-17T13:17:35.639Z,97897.00
2019-01-17T13:19:41.092Z,97891.00
2019-01-17T13:21:46.129Z,97892.00
2019-01-17T13:23:51.194Z,97893.00
2019-01-17T13:25:56.387Z,97900.00
2019-01-17T13:28:01.351Z,97904.00
2019-01-17T13:30:19.953Z,97904.00
2019-01-17T13:32:24.904Z,97907.00
2019-01-17T13:34:30.441Z,97909.00
2019-01-17T13:36:40.349Z,97909.00
2019-01-17T13:38:42.321Z,97916.00
2019-01-17T13:40:47.438Z,97919.00
2019-01-17T13:42:52.483Z,97924.00
2019-01-17T13:44:57.688Z,97933.00
2019-01-17T13:47:02.840Z,97938.00
2019-01-17T13:49:07.702Z,97939.00
2019-01-17T13:51:12.646Z,97940.00
2019-01-17T13:53:17.842Z,97955.00
2019-01-17T13:55:23.032Z,97956.00
2019-01-17T13:57:28.682Z,97956.00
2019-01-17T13:59:33.710Z,97966.00
2019-01-17T14:01:38.824Z,97974.00
2019-01-17T14:03:44.161Z,97976.00
2019-01-17T14:05:49.266Z,97990.00
2019-01-17T14:07:54.957Z,97984.00
2019-01-17T14:10:00.352Z,97980.00
2019-01-17T14:12:06.210Z,97994.00
2019-01-17T14:14:11.784Z,97993.00
2019-01-17T14:16:16.759Z,97997.00
2019-01-17T14:18:27.713Z,97998.00
2019-01-17T14:20:28.643Z,98006.00
2019-01-17T14:22:34.360Z,98014.00
2019-01-17T14:24:40.302Z,98011.00
2019-01-17T14:26:45.171Z,98021.00
2019-01-17T14:28:50.272Z,98033.00
2019-01-17T14:30:55.732Z,98034.00
2019-01-17T14:33:00.823Z,98047.00
2019-01-17T14:35:06.278Z,98055.00
2019-01-17T14:37:11.408Z,98060.00
2019-01-17T14:39:16.274Z,98077.00
2019-01-17T14:41:21.145Z,98073.00
2019-01-17T14:43:26.371Z,98079.00
2019-01-17T14:45:31.422Z,98085.00
2019-01-17T14:47:36.948Z,98091.00
2019-01-17T14:49:41.823Z,98100.00
2019-01-17T14:51:46.937Z,98101.00
2019-01-17T14:53:52.245Z,98109.00
2019-01-17T14:55:57.267Z,98102.00
2019-01-17T14:58:02.636Z,98120.00
2019-01-17T15:00:12.334Z,98119.00
2019-01-17T15:02:17.743Z,98113.00
2019-01-17T15:04:22.740Z,98126.00
2019-01-17T15:06:28.294Z,98117.00
2019-01-17T15:08:33.235Z,98136.00
2019-01-17T15:10:40.953Z,98128.00
2019-01-17T15:12:46.332Z,98151.00
2019-01-17T15:14:51.423Z,98153.00
2019-01-17T15:16:56.472Z,98162.00
2019-01-17T15:19:01.464Z,98161.00
2019-01-17T15:21:06.567Z,98164.00
2019-01-17T15:23:12.721Z,98163.00
2019-01-17T15:25:18.114Z,98162.00
2019-01-17T15:27:27.272Z,98179.00
2019-01-17T15:29:29.834Z,98178.00
2019-01-17T15:31:35.210Z,98171.00
2019-01-17T15:33:40.236Z,98168.00
2019-01-17T15:35:45.280Z,98178.00
2019-01-17T15:37:50.738Z,98174.00
2019-01-17T15:39:55.753Z,98180.00
2019-01-17T15:42:00.656Z,98190.00
2019-01-17T15:44:06.164Z,98196.00
2019-01-17T15:46:11.365Z,98197.00
2019-01-17T15:48:16.744Z,98209.00
2019-01-17T15:50:22.014Z,98212.00
2019-01-17T15:52:26.958Z,98217.00
2019-01-17T15:54:32.149Z,98211.00
2019-01-17T15:56:37.098Z,98225.00
2019-01-17T15:58:42.231Z,98235.00
2019-01-17T16:00:47.368Z,98235.00
2019-01-17T16:02:52.514Z,98245.00
2019-01-17T16:04:57.466Z,98248.00
2019-01-17T16:07:02.506Z,98240.00
2019-01-17T16:09:09.302Z,98249.00
2019-01-17T16:11:14.493Z,98240.00
2019-01-17T16:13:19.527Z,98245.00
2019-01-17T16:15:27.080Z,98254.00
2019-01-17T16:17:32.108Z,98249.00
2019-01-17T16:19:37.090Z,98257.00
2019-01-17T16:21:42.367Z,98258.00
2019-01-17T16:23:47.425Z,98255.00
2019-01-17T16:25:52.460Z,98280.00
2019-01-17T16:27:57.545Z,98271.00
2019-01-17T16:30:02.695Z,98278.00
2019-01-17T16:32:07.650Z,98284.00
2019-01-17T16:34:13.019Z,98284.00
2019-01-17T16:36:18.190Z,98290.00
2019-01-17T16:38:23.240Z,98284.00
2019-01-17T16:40:28.286Z,98293.00
2019-01-17T16:42:33.926Z,98292.00
2019-01-17T16:44:38.917Z,98300.00
2019-01-17T16:46:44.041Z,98309.00
2019-01-17T16:48:49.447Z,98313.00
2019-01-17T16:50:54.816Z,98311.00
2019-01-17T16:52:59.885Z,98315.00
2019-01-17T16:55:05.384Z,98313.00
2019-01-17T16:57:10.405Z,98317.00
2019-01-17T16:59:15.891Z,98309.00
2019-01-17T17:01:21.298Z,98313.00
2019-01-17T17:03:26.289Z,98317.00
2019-01-17T17:05:31.308Z,98317.00
2019-01-17T17:07:36.253Z,98331.00
2019-01-17T17:09:41.229Z,98335.00
2019-01-17T17:11:46.262Z,98336.00
2019-01-17T17:13:51.298Z,98333.00
2019-01-17T17:15:56.484Z,98338.00
2019-01-17T17:18:01.371Z,98339.00
2019-01-17T17:20:10.138Z,98344.00
2019-01-17T17:22:15.351Z,98349.00
2019-01-17T17:24:20.220Z,98361.00
2019-01-17T17:26:25.273Z,98377.00
2019-01-17T17:28:30.379Z,98358.00
2019-01-17T17:30:35.418Z,98377.00
2019-01-17T17:32:40.359Z,98375.00
2019-01-17T17:34:45.395Z,98376.00
2019-01-17T17:36:50.410Z,98373.00
2019-01-17T17:38:55.393Z,98388.00
2019-01-17T17:41:00.477Z,98391.00
2019-01-17T17:43:05.715Z,98399.00
2019-01-17T17:45:11.152Z,98377.00
2019-01-17T17:47:16.367Z,98396.00
2019-01-17T17:49:21.381Z,98395.00
2019-01-17T17:51:26.439Z,98404.00
2019-01-17T17:53:31.481Z,98398.00
2019-01-17T17:55:36.788Z,98405.00
2019-01-17T17:57:42.024Z,98402.00
2019-01-17T17:59:47.353Z,98403.00
2019-01-17T18:01:59.427Z,98402.00
2019-01-17T18:04:04.626Z,98397.00
2019-01-17T18:06:09.767Z,98396.00
2019-01-17T18:08:14.890Z,98395.00
2019-01-17T18:10:20.011Z,98394.00
2019-01-17T18:12:25.136Z,98398.00
2019-01-17T18:14:30.211Z,98400.00
2019-01-17T18:16:35.442Z,98415.00
2019-01-17T18:18:40.525Z,98424.00
2019-01-17T18:20:46.838Z,98422.00
2019-01-17T18:22:51.759Z,98429.00
2019-01-17T18:24:56.748Z,98424.00
2019-01-17T18:27:01.616Z,98430.00
2019-01-17T18:29:06.888Z,98431.00
2019-01-17T18:31:13.687Z,98438.00
2019-01-17T18:33:18.728Z,98447.00
2019-01-17T18:35:23.868Z,98442.00
2019-01-17T18:37:29.134Z,98460.00
2019-01-17T18:39:34.152Z,98459.00
2019-01-17T18:41:39.207Z,98475.00
2019-01-17T18:43:44.252Z,98469.00
2019-01-17T18:45:49.614Z,98473.00
2019-01-17T18:47:54.750Z,98477.00
2019-01-17T18:49:59.843Z,98478.00
2019-01-17T18:52:04.956Z,98482.00
2019-01-17T18:54:09.970Z,98484.00
2019-01-17T18:56:14.996Z,98499.00
2019-01-17T18:58:19.943Z,98492.00
2019-01-17T19:00:31.084Z,98493.00
2019-01-17T19:02:36.022Z,98507.00
2019-01-17T19:04:41.085Z,98499.00
2019-01-17T19:06:46.687Z,98498.00
2019-01-17T19:08:51.759Z,98506.00
2019-01-17T19:10:57.077Z,98515.00
2019-01-17T19:13:02.156Z,98512.00
2019-01-17T19:15:09.968Z,98511.00
2019-01-17T19:17:15.008Z,98514.00
2019-01-17T19:19:20.265Z,98522.00
2019-01-17T19:21:25.703Z,98524.00
2019-01-17T19:23:31.091Z,98527.00
2019-01-17T19:25:36.203Z,98535.00
2019-01-17T19:27:41.321Z,98539.00
2019-01-17T19:29:46.724Z,98540.00
2019-01-17T19:31:52.367Z,98549.00
2019-01-17T19:33:57.478Z,98548.00
2019-01-17T19:36:02.415Z,98548.00
2019-01-17T19:38:07.692Z,98552.00
2019-01-17T19:40:16.165Z,98550.00
2019-01-17T19:42:21.278Z,98562.00
2019-01-17T19:44:26.318Z,98575.00
2019-01-17T19:46:31.396Z,98562.00
2019-01-17T19:48:36.352Z,98574.00
2019-01-17T19:50:41.338Z,98580.00
2019-01-17T19:52:46.373Z,98587.00
2019-01-17T19:54:51.412Z,98587.00
2019-01-17T19:56:56.614Z,98603.00
2019-01-17T19:59:01.645Z,98601.00
2019-01-17T20:01:06.746Z,98613.00
2019-01-17T20:03:11.936Z,98610.00
2019-01-17T20:05:18.394Z,98613.00
2019-01-17T20:07:23.564Z,98618.00
2019-01-17T20:09:28.948Z,98618.00
2019-01-17T20:11:34.098Z,98631.00
2019-01-17T20:13:39.186Z,98639.00
2019-01-17T20:15:44.319Z,98640.00
2019-01-17T20:17:49.454Z,98657.00
2019-01-17T20:19:54.394Z,98657.00
2019-01-17T20:21:59.504Z,98657.00
2019-01-17T20:24:04.817Z,98661.00
2019-01-17T20:26:09.964Z,98667.00
2019-01-17T20:28:14.979Z,98677.00
2019-01-17T20:30:26.634Z,98667.00
2019-01-17T20:32:31.680Z,98672.00
2019-01-17T20:34:36.771Z,98688.00
2019-01-17T20:36:41.749Z,98692.00
2019-01-17T20:38:46.792Z,98692.00
2019-01-17T20:40:58.026Z,98695.00
2019-01-17T20:42:58.664Z,98681.00
2019-01-17T20:45:03.701Z,98696.00
2019-01-17T20:47:09.213Z,98707.00
2019-01-17T20:49:14.161Z,98705.00
2019-01-17T20:51:19.188Z,98716.00
2019-01-17T20:53:24.605Z,98721.00
2019-01-17T20:55:29.662Z,98730.00
2019-01-17T20:57:34.939Z,98726.00
2019-01-17T20:59:39.952Z,98739.00
2019-01-17T21:02:22.868Z,98744.00
2019-01-17T21:04:27.916Z,98736.00
2019-01-17T21:06:32.879Z,98748.00
2019-01-17T21:08:37.776Z,98754.00
2019-01-17T21:10:42.892Z,98757.00
2019-01-17T21:12:47.911Z,98764.00
2019-01-17T21:14:52.987Z,98776.00
2019-01-17T21:16:58.060Z,98760.00
2019-01-17T21:19:03.254Z,98780.00
2019-01-17T21:21:08.207Z,98784.00
2019-01-17T21:23:13.261Z,98787.00
2019-01-17T21:25:19.182Z,98791.00
2019-01-17T21:27:24.398Z,98787.00
2019-01-17T21:29:29.452Z,98793.00
2019-01-17T21:31:34.611Z,98797.00
2019-01-17T21:33:39.558Z,98801.00
2019-01-17T21:35:44.836Z,98797.00
2019-01-17T21:37:49.960Z,98802.00
2019-01-17T21:39:55.000Z,98803.00
2019-01-17T21:41:59.947Z,98808.00
2019-01-17T21:44:05.050Z,98819.00
2019-01-17T21:46:10.298Z,98823.00
2019-01-17T21:48:15.614Z,98820.00
2019-01-17T21:50:24.825Z,98824.00
2019-01-17T21:52:30.476Z,98833.00
2019-01-17T21:54:35.691Z,98832.00
2019-01-17T21:56:40.781Z,98838.00
2019-01-17T21:58:45.979Z,98841.00
2019-01-17T22:00:50.858Z,98841.00
2019-01-17T22:02:55.982Z,98839.00
2019-01-17T22:05:01.258Z,98854.00
2019-01-17T22:07:06.291Z,98856.00
2019-01-17T22:09:11.417Z,98858.00
2019-01-17T22:11:16.790Z,98871.00
2019-01-17T22:13:21.968Z,98867.00
2019-01-17T22:15:27.093Z,98876.00
2019-01-17T22:17:32.413Z,98870.00
2019-01-17T22:19:37.285Z,98869.00
2019-01-17T22:21:42.560Z,98894.00
2019-01-17T22:23:47.443Z,98881.00
2019-01-17T22:25:52.435Z,98887.00
2019-01-17T22:27:57.479Z,98882.00
2019-01-17T22:30:02.579Z,98879.00
2019-01-17T22:32:07.657Z,98882.00
2019-01-17T22:34:12.618Z,98887.00
2019-01-17T22:36:17.502Z,98888.00
2019-01-17T22:38:22.406Z,98883.00
2019-01-17T22:40:27.365Z,98881.00
2019-01-17T22:42:32.672Z,98894.00
2019-01-17T22:44:37.789Z,98897.00
2019-01-17T22:46:42.747Z,98896.00
2019-01-17T22:48:47.710Z,98900.00
2019-01-17T22:50:52.695Z,98910.00
2019-01-17T22:52:57.795Z,98895.00
2019-01-17T22:55:02.863Z,98907.00
2019-01-17T22:57:08.180Z,98914.00
2019-01-17T22:59:13.115Z,98913.00
2019-01-17T23:01:28.863Z,98916.00
2019-01-17T23:03:43.849Z,98928.00
2019-01-17T23:05:48.972Z,98923.00
2019-01-17T23:07:54.489Z,98924.00
2019-01-17T23:09:59.388Z,98924.00
2019-01-17T23:12:04.524Z,98922.00
2019-01-17T23:14:09.978Z,98927.00
2019-01-17T23:16:15.147Z,98923.00
2019-01-17T23:18:20.259Z,98937.00
2019-01-17T23:20:26.481Z,98941.00
2019-01-17T23:22:31.409Z,98932.00
2019-01-17T23:24:36.461Z,98939.00
2019-01-17T23:26:41.717Z,98943.00
2019-01-17T23:28:47.231Z,98955.00
2019-01-17T23:30:52.303Z,98946.00
2019-01-17T23:32:57.326Z,98947.00
2019-01-17T23:35:02.644Z,98952.00
2019-01-17T23:37:07.597Z,98950.00
2019-01-17T23:39:12.749Z,98950.00
2019-01-17T23:41:17.764Z,98961.00
2019-01-17T23:43:22.790Z,98962.00
2019-01-17T23:45:27.832Z,98957.00
2019-01-17T23:47:32.709Z,98957.00
2019-01-17T23:49:37.696Z,98962.00
2019-01-17T23:51:42.646Z,98973.00
2019-01-17T23:53:47.706Z,98973.00
2019-01-17T23:55:52.735Z,98971.00
2019-01-17T23:57:57.605Z,98974.00
